sensor_id;sensor_type;location;lat;lon;timestamp;pressure;altitude;pressure_sealevel;temperature;humidity
62333;BME280;48624;49.812;8.562;2023-03-22T00:00:53;100366.28;;;9.69;90.16
62333;BME280;48624;49.812;8.562;2023-03-22T00:03:21;100356.91;;;9.78;89.40
62333;BME280;48624;49.812;8.562;2023-03-22T00:05:46;100356.59;;;9.83;89.13
62333;BME280;48624;49.812;8.562;2023-03-22T00:08:12;100358.41;;;9.95;88.61
62333;BME280;48624;49.812;8.562;2023-03-22T00:10:39;100348.66;;;9.83;88.63
62333;BME280;48624;49.812;8.562;2023-03-22T00:13:07;100348.34;;;10.00;88.52
62333;BME280;48624;49.812;8.562;2023-03-22T00:15:33;100350.47;;;9.95;88.61
62333;BME280;48624;49.812;8.562;2023-03-22T00:17:59;100333.44;;;9.99;88.42
62333;BME280;48624;49.812;8.562;2023-03-22T00:20:25;100343.59;;;9.93;88.37
62333;BME280;48624;49.812;8.562;2023-03-22T00:22:54;100330.91;;;9.98;88.39
62333;BME280;48624;49.812;8.562;2023-03-22T00:25:20;100335.00;;;9.89;88.66
62333;BME280;48624;49.812;8.562;2023-03-22T00:27:45;100332.59;;;9.99;88.06
62333;BME280;48624;49.812;8.562;2023-03-22T00:30:11;100329.75;;;10.15;87.92
62333;BME280;48624;49.812;8.562;2023-03-22T00:32:37;100328.38;;;10.09;87.51
62333;BME280;48624;49.812;8.562;2023-03-22T00:35:03;100325.72;;;9.96;87.65
62333;BME280;48624;49.812;8.562;2023-03-22T00:37:29;100328.25;;;9.98;88.43
62333;BME280;48624;49.812;8.562;2023-03-22T00:40:02;100331.31;;;9.92;88.36
62333;BME280;48624;49.812;8.562;2023-03-22T00:42:29;100334.59;;;9.95;88.72
62333;BME280;48624;49.812;8.562;2023-03-22T00:44:54;100316.16;;;9.94;88.81
62333;BME280;48624;49.812;8.562;2023-03-22T00:47:20;100323.59;;;9.89;88.74
62333;BME280;48624;49.812;8.562;2023-03-22T00:49:45;100321.59;;;9.92;89.04
62333;BME280;48624;49.812;8.562;2023-03-22T00:52:11;100318.78;;;9.81;89.26
62333;BME280;48624;49.812;8.562;2023-03-22T00:54:36;100320.28;;;9.85;89.18
62333;BME280;48624;49.812;8.562;2023-03-22T00:57:02;100323.16;;;9.95;88.53
62333;BME280;48624;49.812;8.562;2023-03-22T00:59:27;100319.59;;;9.96;88.89
62333;BME280;48624;49.812;8.562;2023-03-22T01:01:53;100309.50;;;9.88;88.31
62333;BME280;48624;49.812;8.562;2023-03-22T01:04:20;100321.56;;;10.05;88.26
62333;BME280;48624;49.812;8.562;2023-03-22T01:06:50;100308.66;;;10.00;87.93
62333;BME280;48624;49.812;8.562;2023-03-22T01:09:15;100314.59;;;10.04;88.15
62333;BME280;48624;49.812;8.562;2023-03-22T01:11:41;100315.97;;;10.10;87.95
62333;BME280;48624;49.812;8.562;2023-03-22T01:14:07;100310.06;;;10.06;88.42
62333;BME280;48624;49.812;8.562;2023-03-22T01:16:35;100309.75;;;10.11;88.40
62333;BME280;48624;49.812;8.562;2023-03-22T01:19:00;100307.19;;;9.96;89.09
62333;BME280;48624;49.812;8.562;2023-03-22T01:21:26;100308.16;;;10.08;88.80
62333;BME280;48624;49.812;8.562;2023-03-22T01:23:51;100296.06;;;10.04;88.69
62333;BME280;48624;49.812;8.562;2023-03-22T01:26:16;100294.69;;;10.11;88.30
62333;BME280;48624;49.812;8.562;2023-03-22T01:28:42;100297.03;;;10.16;87.93
62333;BME280;48624;49.812;8.562;2023-03-22T01:31:07;100287.81;;;10.22;88.32
62333;BME280;48624;49.812;8.562;2023-03-22T01:33:32;100286.75;;;10.11;88.10
62333;BME280;48624;49.812;8.562;2023-03-22T01:35:58;100288.03;;;10.19;88.43
62333;BME280;48624;49.812;8.562;2023-03-22T01:38:23;100282.75;;;10.19;87.46
62333;BME280;48624;49.812;8.562;2023-03-22T01:40:48;100287.81;;;10.09;88.16
62333;BME280;48624;49.812;8.562;2023-03-22T01:43:15;100278.28;;;10.19;88.28
62333;BME280;48624;49.812;8.562;2023-03-22T01:45:49;100285.28;;;10.20;88.15
62333;BME280;48624;49.812;8.562;2023-03-22T01:48:25;100280.63;;;10.11;88.70
62333;BME280;48624;49.812;8.562;2023-03-22T01:51:15;100279.34;;;10.04;88.88
62333;BME280;48624;49.812;8.562;2023-03-22T01:53:49;100274.16;;;10.15;88.52
62333;BME280;48624;49.812;8.562;2023-03-22T01:56:18;100276.56;;;10.05;88.92
62333;BME280;48624;49.812;8.562;2023-03-22T01:58:47;100271.50;;;10.15;88.93
62333;BME280;48624;49.812;8.562;2023-03-22T02:01:13;100273.94;;;10.05;88.96
62333;BME280;48624;49.812;8.562;2023-03-22T02:03:51;100273.31;;;10.02;89.40
62333;BME280;48624;49.812;8.562;2023-03-22T02:06:19;100272.25;;;9.91;90.22
62333;BME280;48624;49.812;8.562;2023-03-22T02:08:45;100274.56;;;9.83;90.72
62333;BME280;48624;49.812;8.562;2023-03-22T02:11:16;100265.78;;;9.95;90.29
62333;BME280;48624;49.812;8.562;2023-03-22T02:34:27;100275.41;;;9.96;90.24
62333;BME280;48624;49.812;8.562;2023-03-22T02:37:20;100272.25;;;9.78;90.89
62333;BME280;48624;49.812;8.562;2023-03-22T02:40:19;100268.63;;;9.79;90.75
62333;BME280;48624;49.812;8.562;2023-03-22T02:46:11;100262.59;;;9.90;90.33
62333;BME280;48624;49.812;8.562;2023-03-22T02:51:50;100255.81;;;9.73;90.74
62333;BME280;48624;49.812;8.562;2023-03-22T02:54:37;100257.09;;;9.80;90.66
62333;BME280;48624;49.812;8.562;2023-03-22T02:57:21;100252.97;;;9.89;90.98
62333;BME280;48624;49.812;8.562;2023-03-22T02:59:50;100253.72;;;9.78;91.28
62333;BME280;48624;49.812;8.562;2023-03-22T03:02:17;100250.53;;;9.86;91.17
62333;BME280;48624;49.812;8.562;2023-03-22T03:04:47;100249.59;;;9.87;91.10
62333;BME280;48624;49.812;8.562;2023-03-22T03:07:17;100245.88;;;9.77;91.18
62333;BME280;48624;49.812;8.562;2023-03-22T03:09:45;100250.94;;;9.80;91.81
62333;BME280;48624;49.812;8.562;2023-03-22T03:12:17;100238.91;;;9.76;91.53
62333;BME280;48624;49.812;8.562;2023-03-22T03:14:43;100243.53;;;9.59;92.68
62333;BME280;48624;49.812;8.562;2023-03-22T03:17:22;100250.19;;;9.65;92.42
62333;BME280;48624;49.812;8.562;2023-03-22T03:25:26;100243.00;;;9.80;92.12
62333;BME280;48624;49.812;8.562;2023-03-22T03:28:03;100234.31;;;9.65;92.31
62333;BME280;48624;49.812;8.562;2023-03-22T03:30:39;100234.63;;;9.60;92.49
62333;BME280;48624;49.812;8.562;2023-03-22T03:33:13;100234.84;;;9.57;92.95
62333;BME280;48624;49.812;8.562;2023-03-22T03:35:47;100234.13;;;9.55;93.01
62333;BME280;48624;49.812;8.562;2023-03-22T03:38:17;100231.50;;;9.68;93.13
62333;BME280;48624;49.812;8.562;2023-03-22T03:40:49;100235.91;;;9.54;93.14
62333;BME280;48624;49.812;8.562;2023-03-22T03:43:16;100230.50;;;9.56;93.70
62333;BME280;48624;49.812;8.562;2023-03-22T03:45:43;100216.63;;;9.39;93.50
62333;BME280;48624;49.812;8.562;2023-03-22T03:48:14;100225.56;;;9.64;92.70
62333;BME280;48624;49.812;8.562;2023-03-22T03:50:42;100221.84;;;9.54;92.80
62333;BME280;48624;49.812;8.562;2023-03-22T03:53:07;100227.66;;;9.59;92.78
62333;BME280;48624;49.812;8.562;2023-03-22T03:55:33;100228.84;;;9.81;91.75
62333;BME280;48624;49.812;8.562;2023-03-22T03:57:58;100219.19;;;9.67;92.59
62333;BME280;48624;49.812;8.562;2023-03-22T04:00:23;100217.69;;;9.50;92.49
62333;BME280;48624;49.812;8.562;2023-03-22T04:02:49;100213.34;;;9.49;92.63
62333;BME280;48624;49.812;8.562;2023-03-22T04:05:14;100211.25;;;9.54;91.98
62333;BME280;48624;49.812;8.562;2023-03-22T04:07:39;100223.09;;;9.61;92.20
62333;BME280;48624;49.812;8.562;2023-03-22T04:10:06;100215.28;;;9.60;91.87
62333;BME280;48624;49.812;8.562;2023-03-22T04:12:32;100208.91;;;9.62;91.91
62333;BME280;48624;49.812;8.562;2023-03-22T04:14:57;100207.16;;;9.76;91.67
62333;BME280;48624;49.812;8.562;2023-03-22T04:17:23;100203.00;;;9.71;91.62
62333;BME280;48624;49.812;8.562;2023-03-22T04:19:48;100213.28;;;9.63;91.63
62333;BME280;48624;49.812;8.562;2023-03-22T04:22:14;100203.75;;;9.61;92.11
62333;BME280;48624;49.812;8.562;2023-03-22T04:24:43;100199.41;;;9.60;92.11
62333;BME280;48624;49.812;8.562;2023-03-22T04:27:14;100193.81;;;9.64;91.66
62333;BME280;48624;49.812;8.562;2023-03-22T04:29:40;100191.56;;;9.58;91.51
62333;BME280;48624;49.812;8.562;2023-03-22T04:32:17;100181.53;;;9.50;91.66
62333;BME280;48624;49.812;8.562;2023-03-22T04:34:43;100197.50;;;9.49;91.99
62333;BME280;48624;49.812;8.562;2023-03-22T04:37:09;100187.47;;;9.54;92.08
62333;BME280;48624;49.812;8.562;2023-03-22T04:39:34;100194.41;;;9.42;92.75
62333;BME280;48624;49.812;8.562;2023-03-22T04:42:00;100191.25;;;9.50;91.81
62333;BME280;48624;49.812;8.562;2023-03-22T04:44:26;100189.31;;;9.39;92.72
62333;BME280;48624;49.812;8.562;2023-03-22T04:46:51;100193.00;;;9.23;93.33
62333;BME280;48624;49.812;8.562;2023-03-22T04:49:16;100197.78;;;9.31;93.69
62333;BME280;48624;49.812;8.562;2023-03-22T04:51:42;100190.47;;;9.35;93.46
62333;BME280;48624;49.812;8.562;2023-03-22T04:54:07;100181.13;;;9.16;93.81
62333;BME280;48624;49.812;8.562;2023-03-22T04:56:32;100183.34;;;9.09;93.68
62333;BME280;48624;49.812;8.562;2023-03-22T04:58:57;100181.44;;;9.11;94.38
62333;BME280;48624;49.812;8.562;2023-03-22T05:01:23;100180.78;;;9.08;94.24
62333;BME280;48624;49.812;8.562;2023-03-22T05:03:48;100188.19;;;9.02;94.31
62333;BME280;48624;49.812;8.562;2023-03-22T05:06:14;100190.78;;;8.90;94.62
62333;BME280;48624;49.812;8.562;2023-03-22T05:08:40;100191.50;;;9.06;94.23
62333;BME280;48624;49.812;8.562;2023-03-22T05:11:13;100197.38;;;8.97;94.09
62333;BME280;48624;49.812;8.562;2023-03-22T05:13:40;100196.06;;;8.90;94.63
62333;BME280;48624;49.812;8.562;2023-03-22T05:16:07;100203.78;;;8.93;94.54
62333;BME280;48624;49.812;8.562;2023-03-22T05:18:33;100211.72;;;8.93;94.37
62333;BME280;48624;49.812;8.562;2023-03-22T05:20:59;100203.25;;;8.87;94.46
62333;BME280;48624;49.812;8.562;2023-03-22T05:23:30;100195.06;;;8.78;95.20
62333;BME280;48624;49.812;8.562;2023-03-22T05:25:56;100201.69;;;8.70;95.20
62333;BME280;48624;49.812;8.562;2023-03-22T05:28:22;100207.81;;;8.71;95.21
62333;BME280;48624;49.812;8.562;2023-03-22T05:30:49;100211.72;;;8.65;95.07
62333;BME280;48624;49.812;8.562;2023-03-22T05:33:15;100203.44;;;8.57;95.91
62333;BME280;48624;49.812;8.562;2023-03-22T05:35:45;100204.25;;;8.57;95.71
62333;BME280;48624;49.812;8.562;2023-03-22T05:38:10;100208.91;;;8.54;95.78
62333;BME280;48624;49.812;8.562;2023-03-22T05:40:36;100201.00;;;8.54;95.98
62333;BME280;48624;49.812;8.562;2023-03-22T05:43:01;100209.09;;;8.51;96.09
62333;BME280;48624;49.812;8.562;2023-03-22T05:45:26;100202.78;;;8.53;95.86
62333;BME280;48624;49.812;8.562;2023-03-22T05:47:52;100210.28;;;8.45;96.10
62333;BME280;48624;49.812;8.562;2023-03-22T05:50:20;100218.63;;;8.53;96.27
62333;BME280;48624;49.812;8.562;2023-03-22T05:52:46;100217.00;;;8.51;95.93
62333;BME280;48624;49.812;8.562;2023-03-22T05:55:12;100212.94;;;8.59;95.15
62333;BME280;48624;49.812;8.562;2023-03-22T05:57:39;100222.28;;;8.65;94.94
62333;BME280;48624;49.812;8.562;2023-03-22T06:00:09;100227.72;;;8.62;94.72
62333;BME280;48624;49.812;8.562;2023-03-22T06:02:41;100224.06;;;8.65;95.16
62333;BME280;48624;49.812;8.562;2023-03-22T06:05:08;100222.56;;;8.60;94.97
62333;BME280;48624;49.812;8.562;2023-03-22T06:07:35;100226.63;;;8.52;95.23
62333;BME280;48624;49.812;8.562;2023-03-22T06:10:01;100227.66;;;8.64;94.42
62333;BME280;48624;49.812;8.562;2023-03-22T06:12:26;100218.28;;;8.43;95.42
62333;BME280;48624;49.812;8.562;2023-03-22T06:14:52;100215.78;;;8.56;95.46
62333;BME280;48624;49.812;8.562;2023-03-22T06:17:18;100220.66;;;8.63;94.85
62333;BME280;48624;49.812;8.562;2023-03-22T06:19:43;100208.91;;;8.54;95.38
62333;BME280;48624;49.812;8.562;2023-03-22T06:22:09;100211.16;;;8.45;96.10
62333;BME280;48624;49.812;8.562;2023-03-22T06:24:35;100215.59;;;8.59;95.35
62333;BME280;48624;49.812;8.562;2023-03-22T06:27:00;100215.47;;;8.61;95.40
62333;BME280;48624;49.812;8.562;2023-03-22T06:29:25;100212.47;;;8.53;95.17
62333;BME280;48624;49.812;8.562;2023-03-22T06:31:51;100216.44;;;8.60;94.77
62333;BME280;48624;49.812;8.562;2023-03-22T06:34:16;100226.25;;;8.58;94.70
62333;BME280;48624;49.812;8.562;2023-03-22T06:36:41;100227.91;;;8.73;94.02
62333;BME280;48624;49.812;8.562;2023-03-22T06:39:07;100226.81;;;8.63;94.54
62333;BME280;48624;49.812;8.562;2023-03-22T06:41:33;100224.50;;;8.71;94.35
62333;BME280;48624;49.812;8.562;2023-03-22T06:43:58;100221.69;;;8.74;94.36
62333;BME280;48624;49.812;8.562;2023-03-22T06:46:23;100230.88;;;8.82;93.58
62333;BME280;48624;49.812;8.562;2023-03-22T06:48:49;100236.16;;;8.96;93.69
62333;BME280;48624;49.812;8.562;2023-03-22T06:51:14;100243.03;;;8.99;93.21
62333;BME280;48624;49.812;8.562;2023-03-22T06:53:39;100241.41;;;9.11;93.02
62333;BME280;48624;49.812;8.562;2023-03-22T06:56:05;100242.88;;;9.15;92.13
62333;BME280;48624;49.812;8.562;2023-03-22T06:58:30;100251.03;;;9.12;92.39
62333;BME280;48624;49.812;8.562;2023-03-22T07:00:56;100258.00;;;9.13;92.71
62333;BME280;48624;49.812;8.562;2023-03-22T07:03:24;100248.31;;;9.26;91.82
62333;BME280;48624;49.812;8.562;2023-03-22T07:05:50;100251.72;;;9.41;92.29
62333;BME280;48624;49.812;8.562;2023-03-22T07:08:15;100242.44;;;9.49;91.83
62333;BME280;48624;49.812;8.562;2023-03-22T07:10:41;100249.03;;;9.56;92.17
62333;BME280;48624;49.812;8.562;2023-03-22T07:13:08;100248.34;;;9.39;92.03
62333;BME280;48624;49.812;8.562;2023-03-22T07:15:33;100247.81;;;9.47;91.49
62333;BME280;48624;49.812;8.562;2023-03-22T07:18:03;100251.75;;;9.54;91.45
62333;BME280;48624;49.812;8.562;2023-03-22T07:20:28;100255.06;;;9.71;91.38
62333;BME280;48624;49.812;8.562;2023-03-22T07:22:54;100247.88;;;9.73;90.86
62333;BME280;48624;49.812;8.562;2023-03-22T07:25:19;100255.41;;;9.79;90.87
62333;BME280;48624;49.812;8.562;2023-03-22T07:27:45;100254.56;;;9.79;91.45
62333;BME280;48624;49.812;8.562;2023-03-22T07:30:10;100252.47;;;9.84;90.31
62333;BME280;48624;49.812;8.562;2023-03-22T07:32:38;100246.53;;;10.06;90.12
62333;BME280;48624;49.812;8.562;2023-03-22T07:35:04;100257.00;;;10.21;89.96
62333;BME280;48624;49.812;8.562;2023-03-22T07:37:30;100248.31;;;10.06;89.57
62333;BME280;48624;49.812;8.562;2023-03-22T07:39:55;100248.31;;;10.32;88.95
62333;BME280;48624;49.812;8.562;2023-03-22T07:42:21;100252.13;;;10.27;89.00
62333;BME280;48624;49.812;8.562;2023-03-22T07:44:46;100244.72;;;10.46;88.66
62333;BME280;48624;49.812;8.562;2023-03-22T07:47:13;100231.06;;;10.39;88.53
62333;BME280;48624;49.812;8.562;2023-03-22T07:49:39;100231.78;;;10.54;88.37
62333;BME280;48624;49.812;8.562;2023-03-22T07:52:04;100238.84;;;10.66;88.04
62333;BME280;48624;49.812;8.562;2023-03-22T07:54:30;100240.56;;;10.54;86.83
62333;BME280;48624;49.812;8.562;2023-03-22T07:56:55;100233.84;;;10.75;86.95
62333;BME280;48624;49.812;8.562;2023-03-22T07:59:21;100238.47;;;10.84;86.12
62333;BME280;48624;49.812;8.562;2023-03-22T08:01:47;100234.09;;;10.96;85.76
62333;BME280;48624;49.812;8.562;2023-03-22T08:04:12;100228.03;;;10.94;85.60
62333;BME280;48624;49.812;8.562;2023-03-22T08:06:39;100235.25;;;11.41;84.79
62333;BME280;48624;49.812;8.562;2023-03-22T08:09:06;100229.78;;;11.78;83.76
62333;BME280;48624;49.812;8.562;2023-03-22T08:11:33;100229.31;;;11.73;83.98
62333;BME280;48624;49.812;8.562;2023-03-22T08:13:58;100233.66;;;11.74;83.97
62333;BME280;48624;49.812;8.562;2023-03-22T08:16:23;100233.66;;;11.62;83.57
62333;BME280;48624;49.812;8.562;2023-03-22T08:18:48;100228.09;;;11.65;83.28
62333;BME280;48624;49.812;8.562;2023-03-22T08:21:14;100234.41;;;11.87;82.88
62333;BME280;48624;49.812;8.562;2023-03-22T08:23:39;100231.47;;;12.15;82.91
62333;BME280;48624;49.812;8.562;2023-03-22T08:26:05;100239.19;;;12.18;82.64
62333;BME280;48624;49.812;8.562;2023-03-22T08:28:30;100233.38;;;12.35;82.31
62333;BME280;48624;49.812;8.562;2023-03-22T08:30:56;100241.56;;;12.67;82.03
62333;BME280;48624;49.812;8.562;2023-03-22T08:33:22;100242.63;;;12.87;81.43
62333;BME280;48624;49.812;8.562;2023-03-22T08:35:48;100239.28;;;13.06;80.26
62333;BME280;48624;49.812;8.562;2023-03-22T08:38:14;100245.22;;;13.42;79.07
62333;BME280;48624;49.812;8.562;2023-03-22T08:40:40;100243.03;;;13.15;77.11
62333;BME280;48624;49.812;8.562;2023-03-22T08:43:05;100235.59;;;12.97;79.48
62333;BME280;48624;49.812;8.562;2023-03-22T08:45:31;100238.38;;;12.96;79.07
62333;BME280;48624;49.812;8.562;2023-03-22T08:47:56;100227.69;;;13.40;78.44
62333;BME280;48624;49.812;8.562;2023-03-22T08:50:22;100223.97;;;13.31;78.22
62333;BME280;48624;49.812;8.562;2023-03-22T08:52:47;100221.03;;;13.67;78.07
62333;BME280;48624;49.812;8.562;2023-03-22T08:55:12;100215.53;;;13.58;78.20
62333;BME280;48624;49.812;8.562;2023-03-22T08:57:38;100218.16;;;14.01;76.44
62333;BME280;48624;49.812;8.562;2023-03-22T09:00:04;100206.34;;;13.94;75.15
62333;BME280;48624;49.812;8.562;2023-03-22T09:02:31;100209.16;;;14.23;72.25
62333;BME280;48624;49.812;8.562;2023-03-22T09:04:56;100204.56;;;13.52;73.99
62333;BME280;48624;49.812;8.562;2023-03-22T09:07:22;100194.72;;;13.31;74.93
62333;BME280;48624;49.812;8.562;2023-03-22T09:09:48;100187.72;;;14.04;73.35
62333;BME280;48624;49.812;8.562;2023-03-22T09:12:14;100184.53;;;14.10;73.05
62333;BME280;48624;49.812;8.562;2023-03-22T09:14:39;100191.44;;;14.22;71.30
62333;BME280;48624;49.812;8.562;2023-03-22T09:17:05;100183.22;;;13.94;72.34
62333;BME280;48624;49.812;8.562;2023-03-22T09:19:30;100168.44;;;14.11;70.84
62333;BME280;48624;49.812;8.562;2023-03-22T09:21:56;100176.44;;;14.11;70.07
62333;BME280;48624;49.812;8.562;2023-03-22T09:24:21;100175.28;;;14.04;69.02
62333;BME280;48624;49.812;8.562;2023-03-22T09:26:47;100183.69;;;14.40;70.33
62333;BME280;48624;49.812;8.562;2023-03-22T09:29:13;100181.28;;;14.37;70.32
62333;BME280;48624;49.812;8.562;2023-03-22T09:31:38;100181.41;;;15.26;68.11
62333;BME280;48624;49.812;8.562;2023-03-22T09:34:04;100173.25;;;14.88;70.01
62333;BME280;48624;49.812;8.562;2023-03-22T09:36:30;100176.78;;;14.98;69.21
62333;BME280;48624;49.812;8.562;2023-03-22T09:38:56;100166.25;;;14.97;69.12
62333;BME280;48624;49.812;8.562;2023-03-22T09:43:57;100167.78;;;15.19;66.69
62333;BME280;48624;49.812;8.562;2023-03-22T09:46:35;100157.63;;;15.52;66.14
62333;BME280;48624;49.812;8.562;2023-03-22T09:49:04;100159.44;;;15.52;67.14
62333;BME280;48624;49.812;8.562;2023-03-22T09:54:00;100142.00;;;15.58;66.62
62333;BME280;48624;49.812;8.562;2023-03-22T09:56:28;100137.75;;;15.17;66.17
62333;BME280;48624;49.812;8.562;2023-03-22T09:59:17;100132.31;;;15.66;64.75
62333;BME280;48624;49.812;8.562;2023-03-22T10:01:55;100129.19;;;15.23;64.79
62333;BME280;48624;49.812;8.562;2023-03-22T10:10:17;100121.03;;;15.05;65.24
62333;BME280;48624;49.812;8.562;2023-03-22T10:12:53;100120.75;;;14.79;66.64
62333;BME280;48624;49.812;8.562;2023-03-22T10:15:28;100127.50;;;14.83;64.99
62333;BME280;48624;49.812;8.562;2023-03-22T10:17:57;100120.03;;;15.16;65.46
62333;BME280;48624;49.812;8.562;2023-03-22T10:20:35;100119.16;;;15.45;66.41
62333;BME280;48624;49.812;8.562;2023-03-22T10:23:05;100132.06;;;15.50;64.21
62333;BME280;48624;49.812;8.562;2023-03-22T10:25:39;100120.84;;;15.84;62.96
62333;BME280;48624;49.812;8.562;2023-03-22T10:28:13;100136.06;;;15.74;61.93
62333;BME280;48624;49.812;8.562;2023-03-22T10:30:40;100129.75;;;15.75;62.20
62333;BME280;48624;49.812;8.562;2023-03-22T10:33:13;100133.84;;;16.07;61.98
62333;BME280;48624;49.812;8.562;2023-03-22T10:35:42;100129.44;;;16.16;62.24
62333;BME280;48624;49.812;8.562;2023-03-22T10:38:17;100126.66;;;16.07;63.00
62333;BME280;48624;49.812;8.562;2023-03-22T10:40:44;100136.25;;;16.74;57.79
62333;BME280;48624;49.812;8.562;2023-03-22T10:43:39;100139.00;;;16.83;57.79
62333;BME280;48624;49.812;8.562;2023-03-22T10:46:13;100132.41;;;16.95;55.26
62333;BME280;48624;49.812;8.562;2023-03-22T10:48:43;100118.44;;;17.19;56.65
62333;BME280;48624;49.812;8.562;2023-03-22T10:51:19;100123.19;;;16.89;56.25
62333;BME280;48624;49.812;8.562;2023-03-22T10:53:48;100129.47;;;16.62;57.84
62333;BME280;48624;49.812;8.562;2023-03-22T10:56:17;100122.56;;;16.96;56.40
62333;BME280;48624;49.812;8.562;2023-03-22T10:58:45;100121.13;;;17.46;57.30
62333;BME280;48624;49.812;8.562;2023-03-22T11:01:12;100121.34;;;17.53;57.39
62333;BME280;48624;49.812;8.562;2023-03-22T11:03:41;100108.72;;;17.71;55.99
62333;BME280;48624;49.812;8.562;2023-03-22T11:08:56;100110.50;;;17.97;54.62
62333;BME280;48624;49.812;8.562;2023-03-22T11:11:24;100117.69;;;18.32;53.51
62333;BME280;48624;49.812;8.562;2023-03-22T11:14:19;100109.88;;;18.63;51.60
62333;BME280;48624;49.812;8.562;2023-03-22T11:19:34;100103.78;;;17.93;52.84
62333;BME280;48624;49.812;8.562;2023-03-22T11:22:01;100103.94;;;17.92;54.24
62333;BME280;48624;49.812;8.562;2023-03-22T11:24:30;100100.25;;;18.27;52.27
62333;BME280;48624;49.812;8.562;2023-03-22T11:27:19;100097.88;;;18.24;52.26
62333;BME280;48624;49.812;8.562;2023-03-22T11:29:49;100095.38;;;18.14;53.50
62333;BME280;48624;49.812;8.562;2023-03-22T11:32:28;100096.34;;;18.05;53.86
62333;BME280;48624;49.812;8.562;2023-03-22T11:35:15;100091.81;;;18.14;51.97
62333;BME280;48624;49.812;8.562;2023-03-22T11:37:50;100084.84;;;18.29;51.43
62333;BME280;48624;49.812;8.562;2023-03-22T11:40:28;100080.81;;;18.34;51.95
62333;BME280;48624;49.812;8.562;2023-03-22T11:42:57;100081.28;;;18.21;52.08
62333;BME280;48624;49.812;8.562;2023-03-22T11:45:31;100076.69;;;18.97;51.05
62333;BME280;48624;49.812;8.562;2023-03-22T11:48:08;100083.75;;;19.07;49.21
62333;BME280;48624;49.812;8.562;2023-03-22T11:50:36;100075.47;;;18.50;49.29
62333;BME280;48624;49.812;8.562;2023-03-22T11:53:05;100074.84;;;18.65;50.02
62333;BME280;48624;49.812;8.562;2023-03-22T11:55:34;100059.56;;;18.65;48.80
62333;BME280;48624;49.812;8.562;2023-03-22T11:58:04;100063.38;;;18.29;49.50
62333;BME280;48624;49.812;8.562;2023-03-22T12:00:33;100066.53;;;19.58;46.03
62333;BME280;48624;49.812;8.562;2023-03-22T12:03:04;100060.38;;;18.41;48.97
62333;BME280;48624;49.812;8.562;2023-03-22T12:05:32;100049.50;;;19.25;47.27
62333;BME280;48624;49.812;8.562;2023-03-22T12:08:02;100053.28;;;19.48;46.48
62333;BME280;48624;49.812;8.562;2023-03-22T12:10:41;100041.94;;;19.77;48.41
62333;BME280;48624;49.812;8.562;2023-03-22T12:16:08;100040.88;;;20.27;47.51
62333;BME280;48624;49.812;8.562;2023-03-22T12:21:10;100029.09;;;20.28;46.24
62333;BME280;48624;49.812;8.562;2023-03-22T12:23:36;100036.28;;;20.74;44.91
62333;BME280;48624;49.812;8.562;2023-03-22T12:26:17;100021.09;;;20.81;43.96
62333;BME280;48624;49.812;8.562;2023-03-22T12:31:42;100020.41;;;20.87;44.44
62333;BME280;48624;49.812;8.562;2023-03-22T12:34:17;100016.97;;;21.24;44.73
62333;BME280;48624;49.812;8.562;2023-03-22T12:36:52;100016.50;;;21.05;45.01
62333;BME280;48624;49.812;8.562;2023-03-22T12:39:25;100010.59;;;21.40;41.89
62333;BME280;48624;49.812;8.562;2023-03-22T12:41:54;100005.66;;;21.58;41.99
62333;BME280;48624;49.812;8.562;2023-03-22T12:44:36;100003.72;;;21.67;41.30
62333;BME280;48624;49.812;8.562;2023-03-22T12:50:49;100001.19;;;21.20;41.74
62333;BME280;48624;49.812;8.562;2023-03-22T12:53:17;100001.00;;;20.92;43.32
62333;BME280;48624;49.812;8.562;2023-03-22T12:55:45;99998.69;;;21.19;42.37
62333;BME280;48624;49.812;8.562;2023-03-22T12:58:17;99986.25;;;21.03;42.35
62333;BME280;48624;49.812;8.562;2023-03-22T13:05:50;99982.28;;;20.75;42.12
62333;BME280;48624;49.812;8.562;2023-03-22T13:08:24;99987.16;;;22.07;40.25
62333;BME280;48624;49.812;8.562;2023-03-22T13:11:01;99983.88;;;22.12;39.59
62333;BME280;48624;49.812;8.562;2023-03-22T13:15:59;99984.16;;;21.65;41.91
62333;BME280;48624;49.812;8.562;2023-03-22T13:26:44;99965.38;;;22.09;39.38
62333;BME280;48624;49.812;8.562;2023-03-22T13:29:23;99965.47;;;22.15;39.68
62333;BME280;48624;49.812;8.562;2023-03-22T13:31:58;99968.28;;;21.70;40.15
62333;BME280;48624;49.812;8.562;2023-03-22T13:34:44;99966.97;;;21.81;38.95
62333;BME280;48624;49.812;8.562;2023-03-22T13:39:50;99947.94;;;21.53;38.40
62333;BME280;48624;49.812;8.562;2023-03-22T13:42:20;99952.78;;;22.16;37.02
62333;BME280;48624;49.812;8.562;2023-03-22T13:44:54;99953.06;;;21.47;37.76
62333;BME280;48624;49.812;8.562;2023-03-22T13:47:42;99947.97;;;21.89;38.24
62333;BME280;48624;49.812;8.562;2023-03-22T13:50:16;99945.06;;;22.56;35.88
62333;BME280;48624;49.812;8.562;2023-03-22T13:52:56;99948.16;;;21.36;37.79
62333;BME280;48624;49.812;8.562;2023-03-22T13:58:56;99947.56;;;22.14;37.52
62333;BME280;48624;49.812;8.562;2023-03-22T14:01:04;99942.22;;;22.43;35.95
62333;BME280;48624;49.812;8.562;2023-03-22T14:03:34;99938.91;;;22.19;36.33
62333;BME280;48624;49.812;8.562;2023-03-22T14:06:10;99941.16;;;22.37;36.19
62333;BME280;48624;49.812;8.562;2023-03-22T14:08:41;99939.34;;;22.44;35.91
62333;BME280;48624;49.812;8.562;2023-03-22T14:11:20;99933.06;;;21.57;37.00
62333;BME280;48624;49.812;8.562;2023-03-22T14:13:51;99935.56;;;21.73;36.43
62333;BME280;48624;49.812;8.562;2023-03-22T14:16:40;99939.78;;;21.46;37.22
62333;BME280;48624;49.812;8.562;2023-03-22T14:19:10;99940.84;;;21.00;38.16
62333;BME280;48624;49.812;8.562;2023-03-22T14:21:41;99944.56;;;21.14;37.81
62333;BME280;48624;49.812;8.562;2023-03-22T14:24:14;99940.19;;;21.28;36.94
62333;BME280;48624;49.812;8.562;2023-03-22T14:26:44;99936.50;;;20.60;39.68